sensor_id;sensor_type;location;lat;lon;timestamp;pressure;altitude;pressure_sealevel;temperature;humidity
11329;BME280;5719;42.714;23.732;2023-10-13T00:01:07;94938.94;;;8.98;88.11
11329;BME280;5719;42.714;23.732;2023-10-13T00:03:37;94934.69;;;8.97;88.36
11329;BME280;5719;42.714;23.732;2023-10-13T00:06:07;94934.97;;;8.93;89.14
11329;BME280;5719;42.714;23.732;2023-10-13T00:08:34;94933.31;;;8.92;88.80
11329;BME280;5719;42.714;23.732;2023-10-13T00:11:04;94930.34;;;8.83;88.15
11329;BME280;5719;42.714;23.732;2023-10-13T00:13:30;94932.09;;;8.83;87.94
11329;BME280;5719;42.714;23.732;2023-10-13T00:16:06;94917.91;;;8.76;88.41
11329;BME280;5719;42.714;23.732;2023-10-13T00:18:35;94867.03;;;8.50;88.19
11329;BME280;5719;42.714;23.732;2023-10-13T00:21:10;94921.50;;;8.73;88.37
11329;BME280;5719;42.714;23.732;2023-10-13T00:23:39;94905.63;;;8.65;88.61
11329;BME280;5719;42.714;23.732;2023-10-13T00:26:09;94918.09;;;8.73;87.62
11329;BME280;5719;42.714;23.732;2023-10-13T00:28:36;94902.00;;;8.54;88.34
11329;BME280;5719;42.714;23.732;2023-10-13T00:31:11;94903.75;;;8.53;88.78
11329;BME280;5719;42.714;23.732;2023-10-13T00:33:39;94926.44;;;8.62;88.97
11329;BME280;5719;42.714;23.732;2023-10-13T00:36:09;94925.69;;;8.60;88.29
11329;BME280;5719;42.714;23.732;2023-10-13T00:38:42;94926.75;;;8.56;88.31
11329;BME280;5719;42.714;23.732;2023-10-13T00:41:14;94919.13;;;8.55;88.13
11329;BME280;5719;42.714;23.732;2023-10-13T00:43:46;94922.66;;;8.38;90.26
11329;BME280;5719;42.714;23.732;2023-10-13T00:46:31;94920.06;;;8.38;89.78
11329;BME280;5719;42.714;23.732;2023-10-13T00:48:59;94917.59;;;8.36;89.94
11329;BME280;5719;42.714;23.732;2023-10-13T00:51:27;94909.22;;;8.33;89.41
11329;BME280;5719;42.714;23.732;2023-10-13T00:54:05;94918.63;;;8.34;90.05
11329;BME280;5719;42.714;23.732;2023-10-13T00:56:37;94923.31;;;8.26;90.93
11329;BME280;5719;42.714;23.732;2023-10-13T00:59:11;94921.91;;;8.20;91.07
11329;BME280;5719;42.714;23.732;2023-10-13T01:01:39;94920.00;;;8.24;90.85
11329;BME280;5719;42.714;23.732;2023-10-13T01:04:08;94928.38;;;8.27;90.41
11329;BME280;5719;42.714;23.732;2023-10-13T01:06:39;94918.06;;;8.27;90.92
11329;BME280;5719;42.714;23.732;2023-10-13T01:09:06;94920.00;;;8.24;89.86
11329;BME280;5719;42.714;23.732;2023-10-13T01:11:43;94923.41;;;8.24;89.95
11329;BME280;5719;42.714;23.732;2023-10-13T01:14:09;94923.16;;;8.13;90.45
11329;BME280;5719;42.714;23.732;2023-10-13T01:16:37;94923.09;;;8.15;89.99
11329;BME280;5719;42.714;23.732;2023-10-13T01:19:09;94909.97;;;8.04;88.69
11329;BME280;5719;42.714;23.732;2023-10-13T01:21:38;94915.13;;;8.04;88.70
11329;BME280;5719;42.714;23.732;2023-10-13T01:24:08;94901.84;;;7.96;88.65
11329;BME280;5719;42.714;23.732;2023-10-13T01:26:35;94908.91;;;7.92;89.06
11329;BME280;5719;42.714;23.732;2023-10-13T01:29:05;94920.03;;;7.93;89.00
11329;BME280;5719;42.714;23.732;2023-10-13T01:31:38;94919.63;;;7.84;88.52
11329;BME280;5719;42.714;23.732;2023-10-13T01:34:11;94933.56;;;7.80;88.68
11329;BME280;5719;42.714;23.732;2023-10-13T01:36:38;94908.81;;;7.62;88.93
11329;BME280;5719;42.714;23.732;2023-10-13T01:39:07;94916.28;;;7.67;88.23
11329;BME280;5719;42.714;23.732;2023-10-13T01:41:37;94930.22;;;7.63;89.12
11329;BME280;5719;42.714;23.732;2023-10-13T01:44:04;94932.19;;;7.58;89.36
11329;BME280;5719;42.714;23.732;2023-10-13T01:46:31;94939.34;;;7.53;89.59
11329;BME280;5719;42.714;23.732;2023-10-13T01:48:58;94921.25;;;7.38;89.73
11329;BME280;5719;42.714;23.732;2023-10-13T01:51:24;94928.78;;;7.42;90.07
11329;BME280;5719;42.714;23.732;2023-10-13T01:53:52;94935.69;;;7.41;89.94
11329;BME280;5719;42.714;23.732;2023-10-13T01:56:23;94935.59;;;7.43;91.06
11329;BME280;5719;42.714;23.732;2023-10-13T01:58:49;94935.69;;;7.41;90.57
11329;BME280;5719;42.714;23.732;2023-10-13T02:01:16;94935.06;;;7.36;90.37
11329;BME280;5719;42.714;23.732;2023-10-13T02:03:52;94942.59;;;7.23;90.97
11329;BME280;5719;42.714;23.732;2023-10-13T02:06:27;94928.47;;;7.15;91.19
11329;BME280;5719;42.714;23.732;2023-10-13T02:08:58;94928.75;;;7.26;90.72
11329;BME280;5719;42.714;23.732;2023-10-13T02:11:32;94930.41;;;7.27;90.40
11329;BME280;5719;42.714;23.732;2023-10-13T02:13:58;94928.53;;;7.30;89.43
11329;BME280;5719;42.714;23.732;2023-10-13T02:16:25;94927.78;;;7.28;89.85
11329;BME280;5719;42.714;23.732;2023-10-13T02:18:51;94931.94;;;7.31;90.69
11329;BME280;5719;42.714;23.732;2023-10-13T02:21:18;94917.72;;;7.24;90.83
11329;BME280;5719;42.714;23.732;2023-10-13T02:23:44;94932.31;;;7.23;90.90
11329;BME280;5719;42.714;23.732;2023-10-13T02:26:25;94931.66;;;7.20;90.95
11329;BME280;5719;42.714;23.732;2023-10-13T02:28:57;94928.31;;;7.18;90.63
11329;BME280;5719;42.714;23.732;2023-10-13T02:31:27;94928.47;;;7.15;90.74
11329;BME280;5719;42.714;23.732;2023-10-13T02:33:53;94922.31;;;7.02;90.04
11329;BME280;5719;42.714;23.732;2023-10-13T02:36:21;94915.66;;;6.98;90.31
11329;BME280;5719;42.714;23.732;2023-10-13T02:39:01;94926.09;;;6.95;91.83
11329;BME280;5719;42.714;23.732;2023-10-13T02:41:33;94931.47;;;6.90;92.25
11329;BME280;5719;42.714;23.732;2023-10-13T02:44:04;94931.69;;;6.85;92.26
11329;BME280;5719;42.714;23.732;2023-10-13T02:46:31;94915.69;;;6.80;92.51
11329;BME280;5719;42.714;23.732;2023-10-13T02:49:00;94923.09;;;6.86;91.75
11329;BME280;5719;42.714;23.732;2023-10-13T02:51:34;94926.72;;;6.82;91.36
11329;BME280;5719;42.714;23.732;2023-10-13T02:54:02;94928.69;;;6.77;91.37
11329;BME280;5719;42.714;23.732;2023-10-13T02:56:29;94933.44;;;6.68;91.97
11329;BME280;5719;42.714;23.732;2023-10-13T02:58:56;94940.56;;;6.63;93.13
11329;BME280;5719;42.714;23.732;2023-10-13T03:01:23;94938.13;;;6.60;93.38
11329;BME280;5719;42.714;23.732;2023-10-13T03:03:54;94935.03;;;6.53;93.47
11329;BME280;5719;42.714;23.732;2023-10-13T03:06:21;94928.53;;;6.46;93.62
11329;BME280;5719;42.714;23.732;2023-10-13T03:08:51;94945.47;;;6.50;93.54
11329;BME280;5719;42.714;23.732;2023-10-13T03:11:17;94934.50;;;6.47;93.28
11329;BME280;5719;42.714;23.732;2023-10-13T03:13:47;94935.03;;;6.53;93.09
11329;BME280;5719;42.714;23.732;2023-10-13T03:16:14;94930.19;;;6.47;91.90
11329;BME280;5719;42.714;23.732;2023-10-13T03:18:45;94952.41;;;6.48;91.84
11329;BME280;5719;42.714;23.732;2023-10-13T03:21:20;94945.91;;;6.41;92.62
11329;BME280;5719;42.714;23.732;2023-10-13T03:23:59;94942.41;;;6.42;92.18
11329;BME280;5719;42.714;23.732;2023-10-13T03:26:32;94934.19;;;6.35;92.32
11329;BME280;5719;42.714;23.732;2023-10-13T03:29:03;94936.06;;;6.32;92.57
11329;BME280;5719;42.714;23.732;2023-10-13T03:31:38;94931.78;;;6.32;92.31
11329;BME280;5719;42.714;23.732;2023-10-13T03:34:07;94941.75;;;6.38;92.41
11329;BME280;5719;42.714;23.732;2023-10-13T03:36:37;94949.44;;;6.38;91.39
11329;BME280;5719;42.714;23.732;2023-10-13T03:39:23;94941.88;;;6.35;91.24
11329;BME280;5719;42.714;23.732;2023-10-13T03:41:55;94946.13;;;6.36;91.32
11329;BME280;5719;42.714;23.732;2023-10-13T03:44:22;94934.88;;;6.39;91.11
11329;BME280;5719;42.714;23.732;2023-10-13T03:46:48;94945.81;;;6.43;91.25
11329;BME280;5719;42.714;23.732;2023-10-13T03:49:16;94928.22;;;6.35;91.70
11329;BME280;5719;42.714;23.732;2023-10-13T03:51:47;94933.97;;;6.40;91.59
11329;BME280;5719;42.714;23.732;2023-10-13T03:54:14;94936.59;;;6.38;92.23
11329;BME280;5719;42.714;23.732;2023-10-13T03:56:42;94929.56;;;6.25;92.97
11329;BME280;5719;42.714;23.732;2023-10-13T03:59:10;94928.72;;;6.24;92.89
11329;BME280;5719;42.714;23.732;2023-10-13T04:01:43;94927.06;;;6.23;92.25
11329;BME280;5719;42.714;23.732;2023-10-13T04:04:13;94931.59;;;6.18;92.24
11329;BME280;5719;42.714;23.732;2023-10-13T04:06:42;94927.44;;;6.16;91.45
11329;BME280;5719;42.714;23.732;2023-10-13T04:09:24;94929.25;;;6.14;91.63
11329;BME280;5719;42.714;23.732;2023-10-13T04:12:08;94925.16;;;6.10;92.20
11329;BME280;5719;42.714;23.732;2023-10-13T04:15:07;94919.19;;;6.09;92.13
11329;BME280;5719;42.714;23.732;2023-10-13T04:17:47;94911.75;;;6.05;92.76
11329;BME280;5719;42.714;23.732;2023-10-13T04:20:16;94912.41;;;6.08;92.23
11329;BME280;5719;42.714;23.732;2023-10-13T04:22:59;94906.41;;;5.90;92.75
11329;BME280;5719;42.714;23.732;2023-10-13T04:25:43;94905.28;;;5.77;92.77
11329;BME280;5719;42.714;23.732;2023-10-13T04:28:34;94929.91;;;5.81;93.00
11329;BME280;5719;42.714;23.732;2023-10-13T04:31:03;94927.75;;;5.72;93.43
11329;BME280;5719;42.714;23.732;2023-10-13T04:33:46;94928.66;;;5.71;93.38
11329;BME280;5719;42.714;23.732;2023-10-13T04:36:21;94918.66;;;5.65;93.33
11329;BME280;5719;42.714;23.732;2023-10-13T04:39:03;94928.19;;;5.63;93.90
11329;BME280;5719;42.714;23.732;2023-10-13T04:41:39;94951.25;;;5.63;93.97
11329;BME280;5719;42.714;23.732;2023-10-13T04:44:07;94931.56;;;5.64;93.67
11329;BME280;5719;42.714;23.732;2023-10-13T04:46:49;94942.88;;;5.60;94.31
11329;BME280;5719;42.714;23.732;2023-10-13T04:49:37;94943.75;;;5.59;94.28
11329;BME280;5719;42.714;23.732;2023-10-13T04:52:15;94947.91;;;5.61;94.69
11329;BME280;5719;42.714;23.732;2023-10-13T04:55:06;94890.34;;;5.31;95.04
11329;BME280;5719;42.714;23.732;2023-10-13T04:57:42;94948.41;;;5.69;95.29
11329;BME280;5719;42.714;23.732;2023-10-13T05:00:15;94957.63;;;5.73;95.94
11329;BME280;5719;42.714;23.732;2023-10-13T05:02:59;94954.16;;;5.74;97.71
11329;BME280;5719;42.714;23.732;2023-10-13T05:05:43;94957.22;;;5.82;99.07
11329;BME280;5719;42.714;23.732;2023-10-13T05:08:27;94965.28;;;5.94;99.34
11329;BME280;5719;42.714;23.732;2023-10-13T05:11:12;94954.34;;;5.90;99.79
11329;BME280;5719;42.714;23.732;2023-10-13T05:13:57;94954.94;;;5.95;98.72
11329;BME280;5719;42.714;23.732;2023-10-13T05:16:41;94962.84;;;5.90;98.14
11329;BME280;5719;42.714;23.732;2023-10-13T05:19:25;94965.63;;;6.05;95.68
11329;BME280;5719;42.714;23.732;2023-10-13T05:22:09;94971.22;;;6.13;95.08
11329;BME280;5719;42.714;23.732;2023-10-13T05:24:53;94975.34;;;6.34;95.23
11329;BME280;5719;42.714;23.732;2023-10-13T05:27:38;94973.38;;;6.39;96.14
11329;BME280;5719;42.714;23.732;2023-10-13T05:30:23;94987.03;;;6.58;96.92
11329;BME280;5719;42.714;23.732;2023-10-13T05:33:06;94980.88;;;6.78;95.38
11329;BME280;5719;42.714;23.732;2023-10-13T05:35:50;94990.19;;;6.98;95.19
11329;BME280;5719;42.714;23.732;2023-10-13T05:38:34;94991.97;;;7.30;94.37
11329;BME280;5719;42.714;23.732;2023-10-13T05:41:18;95000.94;;;7.56;94.00
11329;BME280;5719;42.714;23.732;2023-10-13T05:44:04;94995.25;;;7.82;94.91
11329;BME280;5719;42.714;23.732;2023-10-13T05:46:48;94987.78;;;8.09;95.93
11329;BME280;5719;42.714;23.732;2023-10-13T05:49:32;94990.56;;;8.37;92.13
11329;BME280;5719;42.714;23.732;2023-10-13T05:52:16;94988.59;;;8.56;86.20
11329;BME280;5719;42.714;23.732;2023-10-13T05:54:46;95001.13;;;8.78;84.05
11329;BME280;5719;42.714;23.732;2023-10-13T05:57:31;94998.19;;;9.00;82.27
11329;BME280;5719;42.714;23.732;2023-10-13T06:00:16;94999.16;;;9.27;81.27
11329;BME280;5719;42.714;23.732;2023-10-13T06:03:01;95005.22;;;9.40;83.22
11329;BME280;5719;42.714;23.732;2023-10-13T06:05:47;95006.66;;;9.60;83.40
11329;BME280;5719;42.714;23.732;2023-10-13T06:08:32;95005.34;;;9.67;83.73
11329;BME280;5719;42.714;23.732;2023-10-13T06:11:15;95011.34;;;9.96;83.79
11329;BME280;5719;42.714;23.732;2023-10-13T06:14:00;94995.63;;;10.13;83.97
11329;BME280;5719;42.714;23.732;2023-10-13T06:16:45;95017.22;;;10.40;84.17
11329;BME280;5719;42.714;23.732;2023-10-13T06:19:30;95009.38;;;10.68;84.06
11329;BME280;5719;42.714;23.732;2023-10-13T06:22:28;95013.72;;;10.95;83.94
11329;BME280;5719;42.714;23.732;2023-10-13T06:25:12;95014.50;;;11.22;84.10
11329;BME280;5719;42.714;23.732;2023-10-13T06:27:56;95013.78;;;11.45;83.09
11329;BME280;5719;42.714;23.732;2023-10-13T06:30:40;95017.66;;;11.77;83.55
11329;BME280;5719;42.714;23.732;2023-10-13T06:33:11;95016.81;;;12.02;82.88
11329;BME280;5719;42.714;23.732;2023-10-13T06:35:38;95014.09;;;12.29;82.23
11329;BME280;5719;42.714;23.732;2023-10-13T06:38:06;95023.22;;;12.58;80.24
11329;BME280;5719;42.714;23.732;2023-10-13T06:40:45;95017.63;;;12.88;77.91
11329;BME280;5719;42.714;23.732;2023-10-13T06:43:13;95024.38;;;13.14;77.21
11329;BME280;5719;42.714;23.732;2023-10-13T06:45:43;95026.81;;;13.40;75.93
11329;BME280;5719;42.714;23.732;2023-10-13T06:48:17;95022.06;;;13.68;76.16
11329;BME280;5719;42.714;23.732;2023-10-13T06:50:48;95019.25;;;13.94;76.39
11329;BME280;5719;42.714;23.732;2023-10-13T06:53:17;95016.66;;;14.27;75.29
11329;BME280;5719;42.714;23.732;2023-10-13T06:55:44;95018.28;;;14.50;73.65
11329;BME280;5719;42.714;23.732;2023-10-13T06:58:14;95021.69;;;14.73;73.07
11329;BME280;5719;42.714;23.732;2023-10-13T07:00:42;95019.31;;;14.81;73.53
11329;BME280;5719;42.714;23.732;2023-10-13T07:03:19;95025.63;;;15.10;72.82
11329;BME280;5719;42.714;23.732;2023-10-13T07:05:46;95010.25;;;15.28;71.01
11329;BME280;5719;42.714;23.732;2023-10-13T07:08:15;95002.41;;;15.39;70.46
11329;BME280;5719;42.714;23.732;2023-10-13T07:10:48;94987.66;;;15.29;71.62
11329;BME280;5719;42.714;23.732;2023-10-13T07:13:16;94999.25;;;15.56;71.58
11329;BME280;5719;42.714;23.732;2023-10-13T07:15:45;95007.84;;;15.68;70.66
11329;BME280;5719;42.714;23.732;2023-10-13T07:18:12;94994.69;;;16.00;69.76
11329;BME280;5719;42.714;23.732;2023-10-13T07:20:42;95000.50;;;16.43;68.42
11329;BME280;5719;42.714;23.732;2023-10-13T07:23:11;94996.06;;;16.74;67.03
11329;BME280;5719;42.714;23.732;2023-10-13T07:25:50;94999.28;;;17.06;64.85
11329;BME280;5719;42.714;23.732;2023-10-13T07:28:19;94989.94;;;17.13;63.94
11329;BME280;5719;42.714;23.732;2023-10-13T07:30:46;94999.28;;;17.35;63.32
11329;BME280;5719;42.714;23.732;2023-10-13T07:33:36;94991.56;;;17.24;62.80
11329;BME280;5719;42.714;23.732;2023-10-13T07:36:05;94999.28;;;17.35;63.68
11329;BME280;5719;42.714;23.732;2023-10-13T07:38:42;94998.59;;;17.62;62.08
11329;BME280;5719;42.714;23.732;2023-10-13T07:41:14;94990.75;;;17.72;62.00
11329;BME280;5719;42.714;23.732;2023-10-13T07:43:41;94986.84;;;17.95;61.12
11329;BME280;5719;42.714;23.732;2023-10-13T07:46:08;94986.44;;;18.27;60.58
11329;BME280;5719;42.714;23.732;2023-10-13T07:48:36;94986.50;;;18.17;60.42
11329;BME280;5719;42.714;23.732;2023-10-13T07:51:06;94978.94;;;18.41;58.56
11329;BME280;5719;42.714;23.732;2023-10-13T07:53:36;94984.13;;;18.60;58.51
11329;BME280;5719;42.714;23.732;2023-10-13T07:56:06;94984.78;;;18.90;57.58
11329;BME280;5719;42.714;23.732;2023-10-13T07:58:34;94965.50;;;18.99;57.51
11329;BME280;5719;42.714;23.732;2023-10-13T08:01:11;94972.81;;;19.23;55.97
11329;BME280;5719;42.714;23.732;2023-10-13T08:03:42;94983.41;;;18.86;57.23
11329;BME280;5719;42.714;23.732;2023-10-13T08:06:15;94987.09;;;18.93;57.45
11329;BME280;5719;42.714;23.732;2023-10-13T08:08:45;94991.94;;;18.88;57.43
11329;BME280;5719;42.714;23.732;2023-10-13T08:11:16;94971.75;;;19.16;57.33
11329;BME280;5719;42.714;23.732;2023-10-13T08:13:53;94975.00;;;19.45;56.33
11329;BME280;5719;42.714;23.732;2023-10-13T08:16:25;94975.78;;;19.28;57.05
11329;BME280;5719;42.714;23.732;2023-10-13T08:19:11;94971.44;;;19.01;57.95
11329;BME280;5719;42.714;23.732;2023-10-13T08:21:42;94975.34;;;19.15;56.89
11329;BME280;5719;42.714;23.732;2023-10-13T08:24:15;94973.53;;;19.15;56.98
11329;BME280;5719;42.714;23.732;2023-10-13T08:26:50;94974.22;;;19.17;56.53
11329;BME280;5719;42.714;23.732;2023-10-13T08:29:34;94980.50;;;19.24;57.44
11329;BME280;5719;42.714;23.732;2023-10-13T08:32:19;94972.50;;;19.87;54.88
11329;BME280;5719;42.714;23.732;2023-10-13T08:35:02;94979.03;;;20.34;53.04
11329;BME280;5719;42.714;23.732;2023-10-13T08:37:49;94979.16;;;20.67;52.03
11329;BME280;5719;42.714;23.732;2023-10-13T08:40:36;94974.41;;;20.70;51.50
11329;BME280;5719;42.714;23.732;2023-10-13T08:43:20;94973.56;;;21.28;50.71
11329;BME280;5719;42.714;23.732;2023-10-13T08:45:49;94976.38;;;21.50;49.21
11329;BME280;5719;42.714;23.732;2023-10-13T08:48:19;94979.66;;;21.28;49.84
11329;BME280;5719;42.714;23.732;2023-10-13T08:50:52;94981.97;;;21.39;49.50
11329;BME280;5719;42.714;23.732;2023-10-13T08:53:24;94981.66;;;21.59;48.93
11329;BME280;5719;42.714;23.732;2023-10-13T08:55:58;94980.31;;;21.22;48.84
11329;BME280;5719;42.714;23.732;2023-10-13T08:58:31;94972.44;;;21.30;48.96
11329;BME280;5719;42.714;23.732;2023-10-13T09:01:12;94976.06;;;21.37;48.81
11329;BME280;5719;42.714;23.732;2023-10-13T09:03:56;94974.56;;;21.35;49.13
11329;BME280;5719;42.714;23.732;2023-10-13T09:06:44;94975.41;;;21.27;48.96
11329;BME280;5719;42.714;23.732;2023-10-13T09:09:14;94965.19;;;21.24;49.29
11329;BME280;5719;42.714;23.732;2023-10-13T09:11:53;94964.06;;;21.59;48.86
11329;BME280;5719;42.714;23.732;2023-10-13T09:14:35;94965.38;;;21.95;47.65
11329;BME280;5719;42.714;23.732;2023-10-13T09:17:06;94967.81;;;22.05;47.13
11329;BME280;5719;42.714;23.732;2023-10-13T09:19:59;94969.59;;;22.21;47.32
11329;BME280;5719;42.714;23.732;2023-10-13T09:22:46;94967.63;;;22.70;46.12
11329;BME280;5719;42.714;23.732;2023-10-13T09:25:23;94961.97;;;22.81;45.07
11329;BME280;5719;42.714;23.732;2023-10-13T09:27:50;94950.91;;;22.85;45.74
11329;BME280;5719;42.714;23.732;2023-10-13T09:30:19;94955.13;;;22.56;45.64
11329;BME280;5719;42.714;23.732;2023-10-13T09:32:46;94955.47;;;22.53;46.08
11329;BME280;5719;42.714;23.732;2023-10-13T09:35:17;94946.16;;;22.81;45.63
11329;BME280;5719;42.714;23.732;2023-10-13T09:37:49;94946.38;;;23.02;45.64
11329;BME280;5719;42.714;23.732;2023-10-13T09:40:16;94936.09;;;23.07;44.26
11329;BME280;5719;42.714;23.732;2023-10-13T09:42:55;94946.13;;;23.12;44.29
11329;BME280;5719;42.714;23.732;2023-10-13T09:45:26;94940.88;;;22.81;44.79
11329;BME280;5719;42.714;23.732;2023-10-13T09:47:55;94941.72;;;22.73;44.62
11329;BME280;5719;42.714;23.732;2023-10-13T09:50:27;94942.28;;;22.61;45.25
11329;BME280;5719;42.714;23.732;2023-10-13T09:53:00;94936.28;;;22.44;45.54
11329;BME280;5719;42.714;23.732;2023-10-13T09:55:28;94949.16;;;22.23;45.57
11329;BME280;5719;42.714;23.732;2023-10-13T09:58:02;94934.78;;;22.41;46.05
11329;BME280;5719;42.714;23.732;2023-10-13T10:00:37;94936.66;;;22.72;45.69
11329;BME280;5719;42.714;23.732;2023-10-13T10:03:15;94928.66;;;22.49;45.41
11329;BME280;5719;42.714;23.732;2023-10-13T10:05:57;94926.81;;;22.88;45.39
11329;BME280;5719;42.714;23.732;2023-10-13T10:08:30;94920.50;;;22.75;45.11
11329;BME280;5719;42.714;23.732;2023-10-13T10:11:18;94922.53;;;22.57;45.10
11329;BME280;5719;42.714;23.732;2023-10-13T10:13:57;94919.88;;;22.57;45.76
11329;BME280;5719;42.714;23.732;2023-10-13T10:16:37;94920.81;;;22.80;44.75
11329;BME280;5719;42.714;23.732;2023-10-13T10:19:07;94930.81;;;22.84;44.83
11329;BME280;5719;42.714;23.732;2023-10-13T10:21:34;94915.00;;;23.07;44.32
11329;BME280;5719;42.714;23.732;2023-10-13T10:24:02;94917.00;;;23.05;44.40
11329;BME280;5719;42.714;23.732;2023-10-13T10:26:50;94914.38;;;23.51;43.47
11329;BME280;5719;42.714;23.732;2023-10-13T10:29:18;94905.00;;;23.48;43.77
11329;BME280;5719;42.714;23.732;2023-10-13T10:31:45;94895.72;;;24.04;42.37
11329;BME280;5719;42.714;23.732;2023-10-13T10:34:13;94901.34;;;24.30;42.29
11329;BME280;5719;42.714;23.732;2023-10-13T10:36:46;94903.69;;;24.84;41.24
11329;BME280;5719;42.714;23.732;2023-10-13T10:39:13;94900.13;;;25.13;40.16
11329;BME280;5719;42.714;23.732;2023-10-13T10:41:42;94901.28;;;24.74;40.38
11329;BME280;5719;42.714;23.732;2023-10-13T10:44:19;94893.66;;;24.65;39.93
11329;BME280;5719;42.714;23.732;2023-10-13T10:47:09;94883.16;;;24.71;40.86
11329;BME280;5719;42.714;23.732;2023-10-13T10:49:37;94894.38;;;24.73;40.63
11329;BME280;5719;42.714;23.732;2023-10-13T10:52:09;94862.72;;;24.44;40.60
11329;BME280;5719;42.714;23.732;2023-10-13T10:54:43;94886.47;;;24.73;39.95
11329;BME280;5719;42.714;23.732;2023-10-13T10:57:14;94891.09;;;25.07;39.82
11329;BME280;5719;42.714;23.732;2023-10-13T10:59:45;94886.06;;;25.33;39.42
11329;BME280;5719;42.714;23.732;2023-10-13T11:02:12;94895.66;;;25.56;37.91
11329;BME280;5719;42.714;23.732;2023-10-13T11:04:43;94875.25;;;25.77;38.46
11329;BME280;5719;42.714;23.732;2023-10-13T11:07:26;94882.22;;;25.85;38.37
11329;BME280;5719;42.714;23.732;2023-10-13T11:09:54;94886.09;;;26.17;37.80
11329;BME280;5719;42.714;23.732;2023-10-13T11:12:32;94887.41;;;26.27;37.57
11329;BME280;5719;42.714;23.732;2023-10-13T11:15:02;94869.47;;;26.29;37.38
11329;BME280;5719;42.714;23.732;2023-10-13T11:17:35;94878.97;;;26.52;36.54
11329;BME280;5719;42.714;23.732;2023-10-13T11:20:18;94869.22;;;26.72;36.67
11329;BME280;5719;42.714;23.732;2023-10-13T11:22:51;94866.94;;;26.56;36.17
11329;BME280;5719;42.714;23.732;2023-10-13T11:25:23;94866.47;;;27.00;35.89
11329;BME280;5719;42.714;23.732;2023-10-13T11:27:55;94854.25;;;27.05;36.02
11329;BME280;5719;42.714;23.732;2023-10-13T11:30:26;94858.75;;;27.11;35.34
11329;BME280;5719;42.714;23.732;2023-10-13T11:32:58;94864.69;;;27.13;36.40
11329;BME280;5719;42.714;23.732;2023-10-13T11:35:25;94838.09;;;27.00;35.13
11329;BME280;5719;42.714;23.732;2023-10-13T11:37:55;94867.34;;;27.20;35.00
11329;BME280;5719;42.714;23.732;2023-10-13T11:40:29;94847.94;;;27.19;34.15
11329;BME280;5719;42.714;23.732;2023-10-13T11:43:10;94853.84;;;27.21;34.83
11329;BME280;5719;42.714;23.732;2023-10-13T11:45:50;94844.88;;;27.16;35.24
11329;BME280;5719;42.714;23.732;2023-10-13T11:48:21;94848.16;;;27.51;34.24
11329;BME280;5719;42.714;23.732;2023-10-13T11:51:00;94850.63;;;27.65;33.88
11329;BME280;5719;42.714;23.732;2023-10-13T11:53:31;94842.63;;;27.92;33.59
11329;BME280;5719;42.714;23.732;2023-10-13T11:55:58;94848.16;;;27.90;33.24
11329;BME280;5719;42.714;23.732;2023-10-13T11:58:25;94842.47;;;27.60;33.62
11329;BME280;5719;42.714;23.732;2023-10-13T12:00:55;94841.66;;;27.60;33.84
11329;BME280;5719;42.714;23.732;2023-10-13T12:03:47;94824.22;;;27.90;32.96
11329;BME280;5719;42.714;23.732;2023-10-13T12:06:33;94826.44;;;28.06;33.16
11329;BME280;5719;42.714;23.732;2023-10-13T12:09:12;94831.69;;;28.33;32.68
11329;BME280;5719;42.714;23.732;2023-10-13T12:11:57;94833.47;;;28.52;31.33
11329;BME280;5719;42.714;23.732;2023-10-13T12:14:26;94833.63;;;28.70;31.77
11329;BME280;5719;42.714;23.732;2023-10-13T12:16:56;94836.97;;;28.90;31.35
11329;BME280;5719;42.714;23.732;2023-10-13T12:19:29;94832.22;;;28.99;31.94
11329;BME280;5719;42.714;23.732;2023-10-13T12:21:57;94836.47;;;29.06;31.71
11329;BME280;5719;42.714;23.732;2023-10-13T12:24:30;94830.91;;;29.46;31.35
11329;BME280;5719;42.714;23.732;2023-10-13T12:27:06;94825.16;;;29.67;29.32
11329;BME280;5719;42.714;23.732;2023-10-13T12:29:46;94817.94;;;29.74;27.22
11329;BME280;5719;42.714;23.732;2023-10-13T12:32:14;94819.63;;;29.68;28.40
11329;BME280;5719;42.714;23.732;2023-10-13T12:34:48;94825.78;;;29.94;27.71
11329;BME280;5719;42.714;23.732;2023-10-13T12:37:27;94824.44;;;30.03;28.15
11329;BME280;5719;42.714;23.732;2023-10-13T12:40:17;94830.31;;;30.11;27.57
11329;BME280;5719;42.714;23.732;2023-10-13T12:43:02;94828.66;;;30.10;27.65
11329;BME280;5719;42.714;23.732;2023-10-13T12:45:48;94831.03;;;30.18;27.57
11329;BME280;5719;42.714;23.732;2023-10-13T12:48:35;94825.16;;;29.92;27.30
11329;BME280;5719;42.714;23.732;2023-10-13T12:51:20;94819.09;;;30.03;27.26
11329;BME280;5719;42.714;23.732;2023-10-13T12:54:06;94827.03;;;30.09;27.05
11329;BME280;5719;42.714;23.732;2023-10-13T12:56:40;94828.38;;;30.00;27.04
11329;BME280;5719;42.714;23.732;2023-10-13T12:59:09;94821.47;;;29.93;26.69
11329;BME280;5719;42.714;23.732;2023-10-13T13:01:39;94818.22;;;29.91;28.25
11329;BME280;5719;42.714;23.732;2023-10-13T13:04:10;94823.19;;;30.05;27.85
11329;BME280;5719;42.714;23.732;2023-10-13T13:06:44;94831.94;;;29.94;27.52
11329;BME280;5719;42.714;23.732;2023-10-13T13:09:11;94829.63;;;29.98;27.23
11329;BME280;5719;42.714;23.732;2023-10-13T13:11:38;94824.44;;;30.03;27.14
11329;BME280;5719;42.714;23.732;2023-10-13T13:14:06;94824.06;;;29.99;27.15
11329;BME280;5719;42.714;23.732;2023-10-13T13:16:35;94823.34;;;30.10;27.40
11329;BME280;5719;42.714;23.732;2023-10-13T13:19:04;94819.91;;;30.03;26.80
11329;BME280;5719;42.714;23.732;2023-10-13T13:21:38;94818.59;;;30.12;27.73
11329;BME280;5719;42.714;23.732;2023-10-13T13:24:06;94830.97;;;30.07;26.82
11329;BME280;5719;42.714;23.732;2023-10-13T13:26:37;94821.47;;;30.29;26.83
11329;BME280;5719;42.714;23.732;2023-10-13T13:29:07;94820.38;;;30.37;26.51
11329;BME280;5719;42.714;23.732;2023-10-13T13:31:35;94820.00;;;30.33;26.39
11329;BME280;5719;42.714;23.732;2023-10-13T13:34:07;94830.69;;;30.33;25.84
11329;BME280;5719;42.714;23.732;2023-10-13T13:36:36;94823.94;;;30.31;25.96
11329;BME280;5719;42.714;23.732;2023-10-13T13:39:04;94826.00;;;30.29;25.65
11329;BME280;5719;42.714;23.732;2023-10-13T13:41:31;94823.13;;;30.48;26.38